sensor_id;sensor_type;location;lat;lon;timestamp;P1;durP1;ratioP1;P2;durP2;ratioP2
50056;SDS011;36875;49.468;11.200;2023-10-09T00:00:04;3.20;;;1.60;;
50056;SDS011;36875;49.468;11.200;2023-10-09T00:02:51;2.70;;;1.70;;
50056;SDS011;36875;49.468;11.200;2023-10-09T00:05:16;2.58;;;1.60;;
50056;SDS011;36875;49.468;11.200;2023-10-09T00:07:54;3.03;;;1.63;;
50056;SDS011;36875;49.468;11.200;2023-10-09T00:10:21;3.13;;;1.73;;
50056;SDS011;36875;49.468;11.200;2023-10-09T00:12:46;2.67;;;1.77;;
50056;SDS011;36875;49.468;11.200;2023-10-09T00:15:14;4.10;;;1.85;;
50056;SDS011;36875;49.468;11.200;2023-10-09T00:17:42;2.88;;;1.60;;
50056;SDS011;36875;49.468;11.200;2023-10-09T00:20:11;3.42;;;1.83;;
50056;SDS011;36875;49.468;11.200;2023-10-09T00:22:57;4.18;;;1.80;;
50056;SDS011;36875;49.468;11.200;2023-10-09T00:25:23;2.80;;;1.77;;
50056;SDS011;36875;49.468;11.200;2023-10-09T00:27:54;2.28;;;1.60;;
50056;SDS011;36875;49.468;11.200;2023-10-09T00:30:20;2.80;;;1.73;;
50056;SDS011;36875;49.468;11.200;2023-10-09T00:32:47;2.50;;;1.75;;
50056;SDS011;36875;49.468;11.200;2023-10-09T00:35:39;3.33;;;1.70;;
50056;SDS011;36875;49.468;11.200;2023-10-09T00:38:20;3.60;;;1.83;;
50056;SDS011;36875;49.468;11.200;2023-10-09T00:40:46;4.25;;;1.90;;
50056;SDS011;36875;49.468;11.200;2023-10-09T00:43:12;2.83;;;1.80;;
50056;SDS011;36875;49.468;11.200;2023-10-09T00:45:38;2.75;;;1.73;;
50056;SDS011;36875;49.468;11.200;2023-10-09T00:48:05;2.95;;;1.63;;
50056;SDS011;36875;49.468;11.200;2023-10-09T00:50:31;2.95;;;1.60;;
50056;SDS011;36875;49.468;11.200;2023-10-09T00:53:00;3.35;;;1.58;;
50056;SDS011;36875;49.468;11.200;2023-10-09T00:55:30;2.90;;;1.83;;
50056;SDS011;36875;49.468;11.200;2023-10-09T00:58:10;2.78;;;1.60;;
50056;SDS011;36875;49.468;11.200;2023-10-09T01:00:40;2.78;;;1.77;;
50056;SDS011;36875;49.468;11.200;2023-10-09T01:03:09;2.75;;;1.58;;
50056;SDS011;36875;49.468;11.200;2023-10-09T01:05:44;2.65;;;1.88;;
50056;SDS011;36875;49.468;11.200;2023-10-09T01:08:28;3.40;;;1.70;;
50056;SDS011;36875;49.468;11.200;2023-10-09T01:11:08;2.58;;;1.63;;
50056;SDS011;36875;49.468;11.200;2023-10-09T01:13:36;2.95;;;1.80;;
50056;SDS011;36875;49.468;11.200;2023-10-09T01:16:18;3.45;;;1.65;;
50056;SDS011;36875;49.468;11.200;2023-10-09T01:18:47;3.60;;;1.85;;
50056;SDS011;36875;49.468;11.200;2023-10-09T01:21:16;2.40;;;1.60;;
50056;SDS011;36875;49.468;11.200;2023-10-09T01:23:44;2.88;;;1.80;;
50056;SDS011;36875;49.468;11.200;2023-10-09T01:26:29;1.88;;;1.30;;
50056;SDS011;36875;49.468;11.200;2023-10-09T01:28:59;1.58;;;1.40;;
50056;SDS011;36875;49.468;11.200;2023-10-09T01:31:25;2.28;;;1.48;;
50056;SDS011;36875;49.468;11.200;2023-10-09T01:34:08;2.83;;;1.70;;
50056;SDS011;36875;49.468;11.200;2023-10-09T01:36:35;4.60;;;1.70;;
50056;SDS011;36875;49.468;11.200;2023-10-09T01:39:05;2.58;;;1.65;;
50056;SDS011;36875;49.468;11.200;2023-10-09T01:41:46;2.85;;;1.67;;
50056;SDS011;36875;49.468;11.200;2023-10-09T01:44:12;2.58;;;1.50;;
50056;SDS011;36875;49.468;11.200;2023-10-09T01:46:41;4.97;;;1.48;;
50056;SDS011;36875;49.468;11.200;2023-10-09T01:49:06;1.85;;;1.35;;
50056;SDS011;36875;49.468;11.200;2023-10-09T01:51:41;2.58;;;1.50;;
50056;SDS011;36875;49.468;11.200;2023-10-09T01:54:08;2.75;;;1.73;;
50056;SDS011;36875;49.468;11.200;2023-10-09T01:56:42;3.45;;;1.58;;
50056;SDS011;36875;49.468;11.200;2023-10-09T01:59:11;2.97;;;1.92;;
50056;SDS011;36875;49.468;11.200;2023-10-09T02:01:37;3.42;;;1.60;;
50056;SDS011;36875;49.468;11.200;2023-10-09T02:04:06;1.65;;;1.40;;
50056;SDS011;36875;49.468;11.200;2023-10-09T02:06:39;2.53;;;1.80;;
50056;SDS011;36875;49.468;11.200;2023-10-09T02:09:05;2.63;;;1.52;;
50056;SDS011;36875;49.468;11.200;2023-10-09T02:11:33;3.65;;;1.60;;
50056;SDS011;36875;49.468;11.200;2023-10-09T02:14:02;2.05;;;1.40;;
50056;SDS011;36875;49.468;11.200;2023-10-09T02:16:30;3.10;;;1.77;;
50056;SDS011;36875;49.468;11.200;2023-10-09T02:19:06;2.60;;;1.67;;
50056;SDS011;36875;49.468;11.200;2023-10-09T02:21:33;2.50;;;1.70;;
50056;SDS011;36875;49.468;11.200;2023-10-09T02:24:05;2.33;;;1.42;;
50056;SDS011;36875;49.468;11.200;2023-10-09T02:26:52;2.45;;;1.50;;
50056;SDS011;36875;49.468;11.200;2023-10-09T02:29:18;3.22;;;1.73;;
50056;SDS011;36875;49.468;11.200;2023-10-09T02:31:43;2.13;;;1.50;;
50056;SDS011;36875;49.468;11.200;2023-10-09T02:34:16;2.50;;;1.65;;
50056;SDS011;36875;49.468;11.200;2023-10-09T02:36:46;3.17;;;1.60;;
50056;SDS011;36875;49.468;11.200;2023-10-09T02:39:22;2.30;;;1.48;;
50056;SDS011;36875;49.468;11.200;2023-10-09T02:41:55;2.30;;;1.60;;
50056;SDS011;36875;49.468;11.200;2023-10-09T02:44:40;2.20;;;1.55;;
50056;SDS011;36875;49.468;11.200;2023-10-09T02:47:11;2.65;;;1.65;;
50056;SDS011;36875;49.468;11.200;2023-10-09T02:49:43;2.08;;;1.50;;
50056;SDS011;36875;49.468;11.200;2023-10-09T02:52:08;2.35;;;1.50;;
50056;SDS011;36875;49.468;11.200;2023-10-09T02:54:35;2.03;;;1.45;;
50056;SDS011;36875;49.468;11.200;2023-10-09T02:57:07;1.85;;;1.42;;
50056;SDS011;36875;49.468;11.200;2023-10-09T02:59:33;3.17;;;1.60;;
50056;SDS011;36875;49.468;11.200;2023-10-09T03:01:59;2.88;;;1.75;;
50056;SDS011;36875;49.468;11.200;2023-10-09T03:04:24;2.88;;;1.73;;
50056;SDS011;36875;49.468;11.200;2023-10-09T03:06:56;2.47;;;1.50;;
50056;SDS011;36875;49.468;11.200;2023-10-09T03:09:22;2.40;;;1.60;;
50056;SDS011;36875;49.468;11.200;2023-10-09T03:11:54;2.00;;;1.40;;
50056;SDS011;36875;49.468;11.200;2023-10-09T03:14:28;1.98;;;1.33;;
50056;SDS011;36875;49.468;11.200;2023-10-09T03:16:55;1.92;;;1.38;;
50056;SDS011;36875;49.468;11.200;2023-10-09T03:19:21;2.58;;;1.70;;
50056;SDS011;36875;49.468;11.200;2023-10-09T03:21:47;1.98;;;1.52;;
50056;SDS011;36875;49.468;11.200;2023-10-09T03:24:12;1.88;;;1.40;;
50056;SDS011;36875;49.468;11.200;2023-10-09T03:26:38;2.85;;;1.50;;
50056;SDS011;36875;49.468;11.200;2023-10-09T03:29:03;3.70;;;1.60;;
50056;SDS011;36875;49.468;11.200;2023-10-09T03:31:36;2.65;;;1.60;;
50056;SDS011;36875;49.468;11.200;2023-10-09T03:34:02;2.35;;;1.65;;
50056;SDS011;36875;49.468;11.200;2023-10-09T03:36:27;2.42;;;1.60;;
50056;SDS011;36875;49.468;11.200;2023-10-09T03:38:54;2.95;;;1.30;;
50056;SDS011;36875;49.468;11.200;2023-10-09T03:41:20;2.00;;;1.52;;
50056;SDS011;36875;49.468;11.200;2023-10-09T03:43:46;2.03;;;1.50;;
50056;SDS011;36875;49.468;11.200;2023-10-09T03:46:12;2.08;;;1.50;;
50056;SDS011;36875;49.468;11.200;2023-10-09T03:48:52;1.92;;;1.30;;
50056;SDS011;36875;49.468;11.200;2023-10-09T03:51:21;3.00;;;1.25;;
50056;SDS011;36875;49.468;11.200;2023-10-09T03:53:46;2.15;;;1.42;;
50056;SDS011;36875;49.468;11.200;2023-10-09T03:56:12;2.22;;;1.50;;
50056;SDS011;36875;49.468;11.200;2023-10-09T03:58:40;1.95;;;1.50;;
50056;SDS011;36875;49.468;11.200;2023-10-09T04:01:10;2.08;;;1.40;;
50056;SDS011;36875;49.468;11.200;2023-10-09T04:03:42;1.92;;;1.48;;
50056;SDS011;36875;49.468;11.200;2023-10-09T04:06:09;1.98;;;1.40;;
50056;SDS011;36875;49.468;11.200;2023-10-09T04:08:36;3.22;;;1.70;;
50056;SDS011;36875;49.468;11.200;2023-10-09T04:11:09;2.58;;;1.70;;
50056;SDS011;36875;49.468;11.200;2023-10-09T04:13:41;2.17;;;1.40;;
50056;SDS011;36875;49.468;11.200;2023-10-09T04:16:07;2.13;;;1.45;;
50056;SDS011;36875;49.468;11.200;2023-10-09T04:18:51;1.95;;;1.40;;
50056;SDS011;36875;49.468;11.200;2023-10-09T04:21:18;2.30;;;1.50;;
50056;SDS011;36875;49.468;11.200;2023-10-09T04:23:44;2.50;;;1.40;;
50056;SDS011;36875;49.468;11.200;2023-10-09T04:26:34;1.70;;;1.30;;
50056;SDS011;36875;49.468;11.200;2023-10-09T04:29:00;2.00;;;1.42;;
50056;SDS011;36875;49.468;11.200;2023-10-09T04:31:27;2.10;;;1.52;;
50056;SDS011;36875;49.468;11.200;2023-10-09T04:33:57;2.22;;;1.60;;
50056;SDS011;36875;49.468;11.200;2023-10-09T04:36:44;2.38;;;1.45;;
50056;SDS011;36875;49.468;11.200;2023-10-09T04:39:14;2.35;;;1.70;;
50056;SDS011;36875;49.468;11.200;2023-10-09T04:41:41;2.40;;;1.50;;
50056;SDS011;36875;49.468;11.200;2023-10-09T04:44:07;2.58;;;1.50;;
50056;SDS011;36875;49.468;11.200;2023-10-09T04:46:44;2.38;;;1.63;;
50056;SDS011;36875;49.468;11.200;2023-10-09T04:49:10;2.45;;;1.42;;
50056;SDS011;36875;49.468;11.200;2023-10-09T04:51:54;2.42;;;1.60;;
50056;SDS011;36875;49.468;11.200;2023-10-09T04:54:43;2.78;;;1.48;;
50056;SDS011;36875;49.468;11.200;2023-10-09T04:57:27;1.70;;;1.38;;
50056;SDS011;36875;49.468;11.200;2023-10-09T04:59:54;1.83;;;1.45;;
50056;SDS011;36875;49.468;11.200;2023-10-09T05:02:23;2.25;;;1.50;;
50056;SDS011;36875;49.468;11.200;2023-10-09T05:04:48;2.20;;;1.50;;
50056;SDS011;36875;49.468;11.200;2023-10-09T05:07:35;2.85;;;1.55;;
50056;SDS011;36875;49.468;11.200;2023-10-09T05:10:27;2.53;;;1.50;;
50056;SDS011;36875;49.468;11.200;2023-10-09T05:12:52;2.08;;;1.50;;
50056;SDS011;36875;49.468;11.200;2023-10-09T05:15:24;2.42;;;1.50;;
50056;SDS011;36875;49.468;11.200;2023-10-09T05:17:54;4.55;;;1.63;;
50056;SDS011;36875;49.468;11.200;2023-10-09T05:20:21;2.85;;;1.80;;
50056;SDS011;36875;49.468;11.200;2023-10-09T05:22:54;2.35;;;1.67;;
50056;SDS011;36875;49.468;11.200;2023-10-09T05:25:23;3.20;;;1.50;;
50056;SDS011;36875;49.468;11.200;2023-10-09T05:28:08;2.00;;;1.60;;
50056;SDS011;36875;49.468;11.200;2023-10-09T05:30:52;2.45;;;1.50;;
50056;SDS011;36875;49.468;11.200;2023-10-09T05:33:33;3.85;;;1.70;;
50056;SDS011;36875;49.468;11.200;2023-10-09T05:36:00;5.90;;;2.10;;
50056;SDS011;36875;49.468;11.200;2023-10-09T05:38:46;3.00;;;2.00;;
50056;SDS011;36875;49.468;11.200;2023-10-09T05:41:23;4.25;;;2.30;;
50056;SDS011;36875;49.468;11.200;2023-10-09T05:44:07;4.28;;;2.33;;
50056;SDS011;36875;49.468;11.200;2023-10-09T05:46:51;3.92;;;2.05;;
50056;SDS011;36875;49.468;11.200;2023-10-09T05:49:35;3.28;;;2.00;;
50056;SDS011;36875;49.468;11.200;2023-10-09T05:52:20;5.38;;;2.50;;
50056;SDS011;36875;49.468;11.200;2023-10-09T05:54:58;3.38;;;2.22;;
50056;SDS011;36875;49.468;11.200;2023-10-09T05:57:53;3.65;;;2.20;;
50056;SDS011;36875;49.468;11.200;2023-10-09T06:00:52;6.13;;;2.35;;
50056;SDS011;36875;49.468;11.200;2023-10-09T06:03:36;8.02;;;3.35;;
50056;SDS011;36875;49.468;11.200;2023-10-09T06:06:10;5.15;;;2.40;;
50056;SDS011;36875;49.468;11.200;2023-10-09T06:08:43;8.25;;;2.65;;
50056;SDS011;36875;49.468;11.200;2023-10-09T06:11:10;6.75;;;2.50;;
50056;SDS011;36875;49.468;11.200;2023-10-09T06:13:56;8.07;;;2.83;;
50056;SDS011;36875;49.468;11.200;2023-10-09T06:16:35;6.10;;;2.63;;
50056;SDS011;36875;49.468;11.200;2023-10-09T06:19:04;6.70;;;3.03;;
50056;SDS011;36875;49.468;11.200;2023-10-09T06:21:41;5.82;;;3.28;;
50056;SDS011;36875;49.468;11.200;2023-10-09T06:24:07;7.22;;;3.50;;
50056;SDS011;36875;49.468;11.200;2023-10-09T06:26:45;8.02;;;3.60;;
50056;SDS011;36875;49.468;11.200;2023-10-09T06:29:23;9.80;;;3.47;;
50056;SDS011;36875;49.468;11.200;2023-10-09T06:32:01;8.52;;;3.42;;
50056;SDS011;36875;49.468;11.200;2023-10-09T06:34:42;6.00;;;3.15;;
50056;SDS011;36875;49.468;11.200;2023-10-09T06:37:10;9.07;;;3.40;;
50056;SDS011;36875;49.468;11.200;2023-10-09T06:40:02;9.18;;;3.95;;
50056;SDS011;36875;49.468;11.200;2023-10-09T06:42:55;15.95;;;4.15;;
50056;SDS011;36875;49.468;11.200;2023-10-09T06:45:20;10.63;;;4.20;;
50056;SDS011;36875;49.468;11.200;2023-10-09T06:47:47;12.30;;;4.60;;
50056;SDS011;36875;49.468;11.200;2023-10-09T06:50:34;9.88;;;4.00;;
50056;SDS011;36875;49.468;11.200;2023-10-09T06:53:19;15.00;;;4.75;;
50056;SDS011;36875;49.468;11.200;2023-10-09T06:55:45;16.00;;;4.80;;
50056;SDS011;36875;49.468;11.200;2023-10-09T06:58:15;12.32;;;4.10;;
50056;SDS011;36875;49.468;11.200;2023-10-09T07:00:47;9.07;;;4.03;;
50056;SDS011;36875;49.468;11.200;2023-10-09T07:03:40;12.05;;;4.30;;
50056;SDS011;36875;49.468;11.200;2023-10-09T07:06:17;16.80;;;5.30;;
50056;SDS011;36875;49.468;11.200;2023-10-09T07:08:49;16.73;;;4.80;;
50056;SDS011;36875;49.468;11.200;2023-10-09T07:11:35;11.52;;;4.43;;
50056;SDS011;36875;49.468;11.200;2023-10-09T07:14:06;14.65;;;5.18;;
50056;SDS011;36875;49.468;11.200;2023-10-09T07:16:32;11.32;;;4.53;;
50056;SDS011;36875;49.468;11.200;2023-10-09T07:19:03;16.02;;;5.05;;
50056;SDS011;36875;49.468;11.200;2023-10-09T07:21:49;21.60;;;5.15;;
50056;SDS011;36875;49.468;11.200;2023-10-09T07:24:19;15.20;;;4.60;;
50056;SDS011;36875;49.468;11.200;2023-10-09T07:26:49;18.13;;;4.88;;
50056;SDS011;36875;49.468;11.200;2023-10-09T07:29:19;13.50;;;4.70;;
50056;SDS011;36875;49.468;11.200;2023-10-09T07:31:48;13.98;;;4.32;;
50056;SDS011;36875;49.468;11.200;2023-10-09T07:34:22;15.93;;;4.95;;
50056;SDS011;36875;49.468;11.200;2023-10-09T07:37:17;12.93;;;4.45;;
50056;SDS011;36875;49.468;11.200;2023-10-09T07:39:44;11.52;;;4.20;;
50056;SDS011;36875;49.468;11.200;2023-10-09T07:44:45;13.50;;;3.95;;
50056;SDS011;36875;49.468;11.200;2023-10-09T07:47:18;16.25;;;4.57;;
50056;SDS011;36875;49.468;11.200;2023-10-09T07:50:11;14.27;;;4.50;;
50056;SDS011;36875;49.468;11.200;2023-10-09T07:52:36;13.82;;;4.72;;
50056;SDS011;36875;49.468;11.200;2023-10-09T07:55:08;12.65;;;4.10;;
50056;SDS011;36875;49.468;11.200;2023-10-09T07:57:51;12.73;;;4.50;;
50056;SDS011;36875;49.468;11.200;2023-10-09T08:00:18;9.55;;;3.95;;
50056;SDS011;36875;49.468;11.200;2023-10-09T08:03:14;13.10;;;4.25;;
50056;SDS011;36875;49.468;11.200;2023-10-09T08:05:49;12.48;;;3.95;;
50056;SDS011;36875;49.468;11.200;2023-10-09T08:08:14;12.80;;;4.32;;
50056;SDS011;36875;49.468;11.200;2023-10-09T08:10:58;9.93;;;4.00;;
50056;SDS011;36875;49.468;11.200;2023-10-09T08:13:42;10.68;;;3.95;;
50056;SDS011;36875;49.468;11.200;2023-10-09T08:16:27;11.73;;;4.18;;
50056;SDS011;36875;49.468;11.200;2023-10-09T08:19:01;10.95;;;4.05;;
50056;SDS011;36875;49.468;11.200;2023-10-09T08:21:45;11.35;;;3.72;;
50056;SDS011;36875;49.468;11.200;2023-10-09T08:24:31;10.35;;;4.07;;
50056;SDS011;36875;49.468;11.200;2023-10-09T08:27:14;9.88;;;3.92;;
50056;SDS011;36875;49.468;11.200;2023-10-09T08:29:58;13.32;;;4.50;;
50056;SDS011;36875;49.468;11.200;2023-10-09T08:35:07;10.90;;;4.47;;
50056;SDS011;36875;49.468;11.200;2023-10-09T08:37:53;12.50;;;3.95;;
50056;SDS011;36875;49.468;11.200;2023-10-09T08:40:19;10.27;;;4.18;;
50056;SDS011;36875;49.468;11.200;2023-10-09T08:42:45;13.30;;;4.10;;
50056;SDS011;36875;49.468;11.200;2023-10-09T08:45:16;10.48;;;3.88;;
50056;SDS011;36875;49.468;11.200;2023-10-09T08:47:54;10.75;;;3.63;;
50056;SDS011;36875;49.468;11.200;2023-10-09T08:50:19;13.65;;;4.10;;
50056;SDS011;36875;49.468;11.200;2023-10-09T08:52:46;10.50;;;3.70;;
50056;SDS011;36875;49.468;11.200;2023-10-09T08:55:11;9.50;;;4.13;;
50056;SDS011;36875;49.468;11.200;2023-10-09T08:57:38;8.13;;;3.70;;
50056;SDS011;36875;49.468;11.200;2023-10-09T09:00:05;8.93;;;4.30;;
50056;SDS011;36875;49.468;11.200;2023-10-09T09:05:17;7.72;;;3.45;;
50056;SDS011;36875;49.468;11.200;2023-10-09T09:07:43;12.65;;;4.22;;
50056;SDS011;36875;49.468;11.200;2023-10-09T09:10:09;7.90;;;3.80;;
50056;SDS011;36875;49.468;11.200;2023-10-09T09:12:46;12.02;;;4.28;;
50056;SDS011;36875;49.468;11.200;2023-10-09T09:15:13;11.82;;;4.05;;
50056;SDS011;36875;49.468;11.200;2023-10-09T09:17:45;10.30;;;3.75;;
50056;SDS011;36875;49.468;11.200;2023-10-09T09:20:22;11.23;;;3.65;;
50056;SDS011;36875;49.468;11.200;2023-10-09T09:22:52;10.50;;;3.75;;
50056;SDS011;36875;49.468;11.200;2023-10-09T09:25:21;10.63;;;3.55;;
50056;SDS011;36875;49.468;11.200;2023-10-09T09:27:49;10.10;;;4.05;;
50056;SDS011;36875;49.468;11.200;2023-10-09T09:30:24;14.88;;;3.95;;
50056;SDS011;36875;49.468;11.200;2023-10-09T09:32:53;12.55;;;4.22;;
50056;SDS011;36875;49.468;11.200;2023-10-09T09:35:38;9.88;;;4.25;;
50056;SDS011;36875;49.468;11.200;2023-10-09T09:38:04;11.20;;;4.03;;
50056;SDS011;36875;49.468;11.200;2023-10-09T09:40:32;9.02;;;3.40;;
50056;SDS011;36875;49.468;11.200;2023-10-09T09:43:06;8.88;;;3.92;;
50056;SDS011;36875;49.468;11.200;2023-10-09T09:45:46;9.02;;;4.25;;
50056;SDS011;36875;49.468;11.200;2023-10-09T09:48:14;11.23;;;3.60;;
50056;SDS011;36875;49.468;11.200;2023-10-09T09:50:43;8.90;;;3.50;;
50056;SDS011;36875;49.468;11.200;2023-10-09T09:53:10;9.20;;;3.67;;
50056;SDS011;36875;49.468;11.200;2023-10-09T09:55:37;10.55;;;3.85;;
50056;SDS011;36875;49.468;11.200;2023-10-09T09:58:08;11.52;;;3.83;;
50056;SDS011;36875;49.468;11.200;2023-10-09T10:00:43;10.35;;;3.67;;
50056;SDS011;36875;49.468;11.200;2023-10-09T10:03:16;11.38;;;3.85;;
50056;SDS011;36875;49.468;11.200;2023-10-09T10:05:47;10.43;;;3.63;;
50056;SDS011;36875;49.468;11.200;2023-10-09T10:08:16;8.95;;;3.50;;
50056;SDS011;36875;49.468;11.200;2023-10-09T10:10:45;11.55;;;3.85;;
50056;SDS011;36875;49.468;11.200;2023-10-09T10:13:17;9.55;;;3.92;;
50056;SDS011;36875;49.468;11.200;2023-10-09T10:15:59;7.97;;;3.17;;
50056;SDS011;36875;49.468;11.200;2023-10-09T10:18:34;9.48;;;3.83;;
50056;SDS011;36875;49.468;11.200;2023-10-09T10:21:20;8.07;;;3.33;;
50056;SDS011;36875;49.468;11.200;2023-10-09T10:23:57;8.20;;;3.83;;
50056;SDS011;36875;49.468;11.200;2023-10-09T10:26:31;9.15;;;3.53;;
50056;SDS011;36875;49.468;11.200;2023-10-09T10:31:51;8.60;;;3.42;;
50056;SDS011;36875;49.468;11.200;2023-10-09T10:34:19;6.72;;;3.17;;
50056;SDS011;36875;49.468;11.200;2023-10-09T10:36:50;8.60;;;3.47;;
50056;SDS011;36875;49.468;11.200;2023-10-09T10:39:23;9.57;;;3.97;;
50056;SDS011;36875;49.468;11.200;2023-10-09T10:42:07;7.93;;;3.38;;
50056;SDS011;36875;49.468;11.200;2023-10-09T10:44:34;7.93;;;3.35;;
50056;SDS011;36875;49.468;11.200;2023-10-09T10:47:04;8.30;;;3.60;;
50056;SDS011;36875;49.468;11.200;2023-10-09T10:49:30;8.82;;;3.78;;
50056;SDS011;36875;49.468;11.200;2023-10-09T10:52:03;11.30;;;3.80;;
50056;SDS011;36875;49.468;11.200;2023-10-09T10:54:42;9.23;;;3.20;;
50056;SDS011;36875;49.468;11.200;2023-10-09T10:57:14;6.20;;;3.20;;
50056;SDS011;36875;49.468;11.200;2023-10-09T11:00:01;7.65;;;3.08;;
50056;SDS011;36875;49.468;11.200;2023-10-09T11:02:58;8.27;;;3.15;;
50056;SDS011;36875;49.468;11.200;2023-10-09T11:05:39;7.03;;;3.10;;
50056;SDS011;36875;49.468;11.200;2023-10-09T11:08:10;7.95;;;3.67;;
50056;SDS011;36875;49.468;11.200;2023-10-09T11:10:35;6.68;;;3.22;;
50056;SDS011;36875;49.468;11.200;2023-10-09T11:13:01;7.30;;;2.92;;
50056;SDS011;36875;49.468;11.200;2023-10-09T11:15:36;7.75;;;3.20;;
50056;SDS011;36875;49.468;11.200;2023-10-09T11:18:12;7.30;;;3.10;;
50056;SDS011;36875;49.468;11.200;2023-10-09T11:20:44;11.50;;;4.03;;
50056;SDS011;36875;49.468;11.200;2023-10-09T11:23:29;7.40;;;3.20;;
50056;SDS011;36875;49.468;11.200;2023-10-09T11:25:58;6.25;;;2.90;;
50056;SDS011;36875;49.468;11.200;2023-10-09T11:28:43;6.97;;;3.20;;
50056;SDS011;36875;49.468;11.200;2023-10-09T11:31:14;5.93;;;3.10;;
50056;SDS011;36875;49.468;11.200;2023-10-09T11:33:43;9.95;;;3.75;;
50056;SDS011;36875;49.468;11.200;2023-10-09T11:36:09;8.98;;;3.50;;
50056;SDS011;36875;49.468;11.200;2023-10-09T11:38:38;7.40;;;3.20;;
50056;SDS011;36875;49.468;11.200;2023-10-09T11:41:11;6.32;;;2.80;;
50056;SDS011;36875;49.468;11.200;2023-10-09T11:43:47;6.78;;;2.90;;
50056;SDS011;36875;49.468;11.200;2023-10-09T11:46:16;10.35;;;3.00;;
50056;SDS011;36875;49.468;11.200;2023-10-09T11:49:03;6.88;;;3.00;;
50056;SDS011;36875;49.468;11.200;2023-10-09T11:51:50;6.95;;;2.97;;
50056;SDS011;36875;49.468;11.200;2023-10-09T11:54:36;7.30;;;2.97;;
50056;SDS011;36875;49.468;11.200;2023-10-09T11:57:02;7.03;;;3.42;;
50056;SDS011;36875;49.468;11.200;2023-10-09T11:59:27;6.28;;;3.10;;
50056;SDS011;36875;49.468;11.200;2023-10-09T12:01:53;7.30;;;3.03;;
50056;SDS011;36875;49.468;11.200;2023-10-09T12:04:26;5.78;;;2.65;;
50056;SDS011;36875;49.468;11.200;2023-10-09T12:06:55;6.82;;;3.10;;
50056;SDS011;36875;49.468;11.200;2023-10-09T12:09:31;5.57;;;2.80;;
50056;SDS011;36875;49.468;11.200;2023-10-09T12:12:00;6.75;;;2.95;;
50056;SDS011;36875;49.468;11.200;2023-10-09T12:14:27;6.10;;;2.80;;
50056;SDS011;36875;49.468;11.200;2023-10-09T12:16:58;7.18;;;3.03;;
50056;SDS011;36875;49.468;11.200;2023-10-09T12:19:24;7.15;;;3.28;;
50056;SDS011;36875;49.468;11.200;2023-10-09T12:21:49;6.35;;;3.13;;
50056;SDS011;36875;49.468;11.200;2023-10-09T12:24:17;6.10;;;2.80;;
50056;SDS011;36875;49.468;11.200;2023-10-09T12:26:44;6.10;;;2.63;;
50056;SDS011;36875;49.468;11.200;2023-10-09T12:29:12;8.25;;;2.80;;
50056;SDS011;36875;49.468;11.200;2023-10-09T12:31:38;6.85;;;2.60;;
50056;SDS011;36875;49.468;11.200;2023-10-09T12:34:03;6.22;;;3.00;;
50056;SDS011;36875;49.468;11.200;2023-10-09T12:36:30;6.75;;;2.85;;
50056;SDS011;36875;49.468;11.200;2023-10-09T12:39:02;5.40;;;2.88;;
50056;SDS011;36875;49.468;11.200;2023-10-09T12:41:28;6.88;;;2.97;;
50056;SDS011;36875;49.468;11.200;2023-10-09T12:43:58;5.75;;;2.67;;
50056;SDS011;36875;49.468;11.200;2023-10-09T12:46:25;4.93;;;2.33;;
50056;SDS011;36875;49.468;11.200;2023-10-09T12:48:51;7.95;;;3.72;;
50056;SDS011;36875;49.468;11.200;2023-10-09T12:51:19;7.10;;;3.25;;
50056;SDS011;36875;49.468;11.200;2023-10-09T12:53:46;7.25;;;2.97;;
50056;SDS011;36875;49.468;11.200;2023-10-09T12:56:13;7.90;;;3.28;;
50056;SDS011;36875;49.468;11.200;2023-10-09T12:58:40;11.50;;;3.25;;
50056;SDS011;36875;49.468;11.200;2023-10-09T13:01:17;11.98;;;3.78;;
50056;SDS011;36875;49.468;11.200;2023-10-09T13:03:45;11.85;;;3.55;;
50056;SDS011;36875;49.468;11.200;2023-10-09T13:06:14;15.82;;;3.30;;
50056;SDS011;36875;49.468;11.200;2023-10-09T13:08:40;9.02;;;3.53;;
50056;SDS011;36875;49.468;11.200;2023-10-09T13:11:07;10.63;;;3.53;;
50056;SDS011;36875;49.468;11.200;2023-10-09T13:13:37;12.57;;;3.55;;
50056;SDS011;36875;49.468;11.200;2023-10-09T13:16:08;9.82;;;3.63;;
50056;SDS011;36875;49.468;11.200;2023-10-09T13:18:47;9.00;;;3.13;;
50056;SDS011;36875;49.468;11.200;2023-10-09T13:21:15;8.68;;;2.83;;
50056;SDS011;36875;49.468;11.200;2023-10-09T13:23:41;9.73;;;2.92;;
50056;SDS011;36875;49.468;11.200;2023-10-09T13:26:11;9.45;;;3.20;;
50056;SDS011;36875;49.468;11.200;2023-10-09T13:28:46;12.38;;;3.40;;
50056;SDS011;36875;49.468;11.200;2023-10-09T13:31:13;10.45;;;3.60;;
50056;SDS011;36875;49.468;11.200;2023-10-09T13:33:39;7.32;;;2.90;;
50056;SDS011;36875;49.468;11.200;2023-10-09T13:36:06;7.57;;;3.10;;
50056;SDS011;36875;49.468;11.200;2023-10-09T13:38:42;10.30;;;3.60;;
50056;SDS011;36875;49.468;11.200;2023-10-09T13:41:08;9.93;;;3.08;;
50056;SDS011;36875;49.468;11.200;2023-10-09T13:43:38;8.35;;;3.08;;
50056;SDS011;36875;49.468;11.200;2023-10-09T13:46:06;8.70;;;3.20;;
50056;SDS011;36875;49.468;11.200;2023-10-09T13:48:31;9.18;;;3.00;;
50056;SDS011;36875;49.468;11.200;2023-10-09T13:51:03;11.55;;;3.65;;
50056;SDS011;36875;49.468;11.200;2023-10-09T13:53:33;11.15;;;3.40;;
50056;SDS011;36875;49.468;11.200;2023-10-09T13:56:00;15.55;;;3.45;;
50056;SDS011;36875;49.468;11.200;2023-10-09T13:58:26;14.30;;;3.10;;
50056;SDS011;36875;49.468;11.200;2023-10-09T14:00:52;13.23;;;3.15;;
50056;SDS011;36875;49.468;11.200;2023-10-09T14:03:18;10.75;;;3.35;;
50056;SDS011;36875;49.468;11.200;2023-10-09T14:05:44;13.20;;;3.25;;
50056;SDS011;36875;49.468;11.200;2023-10-09T14:08:21;9.52;;;3.00;;
50056;SDS011;36875;49.468;11.200;2023-10-09T14:10:49;11.55;;;3.38;;
50056;SDS011;36875;49.468;11.200;2023-10-09T14:13:15;9.75;;;2.83;;
50056;SDS011;36875;49.468;11.200;2023-10-09T14:15:41;10.88;;;3.20;;
50056;SDS011;36875;49.468;11.200;2023-10-09T14:18:08;10.27;;;3.50;;
50056;SDS011;36875;49.468;11.200;2023-10-09T14:20:36;10.30;;;3.30;;
50056;SDS011;36875;49.468;11.200;2023-10-09T14:23:02;10.60;;;3.17;;
50056;SDS011;36875;49.468;11.200;2023-10-09T14:25:31;16.20;;;3.42;;
50056;SDS011;36875;49.468;11.200;2023-10-09T14:27:59;11.90;;;3.10;;
50056;SDS011;36875;49.468;11.200;2023-10-09T14:30:25;8.85;;;3.22;;
50056;SDS011;36875;49.468;11.200;2023-10-09T14:32:57;10.35;;;3.20;;
50056;SDS011;36875;49.468;11.200;2023-10-09T14:35:22;11.65;;;3.17;;
50056;SDS011;36875;49.468;11.200;2023-10-09T14:37:55;11.98;;;3.03;;
50056;SDS011;36875;49.468;11.200;2023-10-09T14:40:21;9.75;;;2.70;;
50056;SDS011;36875;49.468;11.200;2023-10-09T14:42:54;9.52;;;2.95;;
50056;SDS011;36875;49.468;11.200;2023-10-09T14:45:23;11.55;;;2.95;;
50056;SDS011;36875;49.468;11.200;2023-10-09T14:47:50;9.57;;;2.92;;
50056;SDS011;36875;49.468;11.200;2023-10-09T14:50:18;8.98;;;2.97;;
50056;SDS011;36875;49.468;11.200;2023-10-09T14:52:47;8.68;;;3.28;;
50056;SDS011;36875;49.468;11.200;2023-10-09T14:55:13;11.93;;;3.13;;
50056;SDS011;36875;49.468;11.200;2023-10-09T14:57:38;9.35;;;3.33;;
50056;SDS011;36875;49.468;11.200;2023-10-09T15:00:04;11.00;;;3.10;;
50056;SDS011;36875;49.468;11.200;2023-10-09T15:05:01;11.63;;;3.47;;
50056;SDS011;36875;49.468;11.200;2023-10-09T15:07:29;13.57;;;3.50;;
50056;SDS011;36875;49.468;11.200;2023-10-09T15:09:55;13.52;;;3.17;;
50056;SDS011;36875;49.468;11.200;2023-10-09T15:12:26;12.55;;;3.00;;